x

East Bahamas - 335 Nm East Of San Salvador Is, Bahamas (41046) Wave Buoy

9:50pm - Sun 4th Dec 2016 All times are UTC.

  • Sig Wave height 4.3ft
  • Peak Period 6s
  • Average Period 5s
  • Wind
    13mph, 18mph gusts
  • Sea Temp 78°f
  • Air Temp 75°f
  • Sea Pressure 1017.5mb

More Historic Weather Station data

Upgrade to MSW Pro to gain access to the past 30 days of data for over 8000 Wavebouys and Weather Stations around the globe.

Join Pro

Comparision Forecast

View Surf forecast
   
Sun 12/04 9:50pm 4.5ft 6s 5s 13 18 mph 1017.5mb 78f 75f
9:40pm  -   -   -  13 18 mph 1017.4mb 78f 75f
9:30pm  -   -   -  13 18 mph 1017.5mb 78f 75f
9:20pm  -   -   -  13 16 mph 1017.4mb 78f 75f
9:10pm  -   -   -  13 18 mph 1017.3mb 78f 75f
9:00pm  -   -   -  13 18 mph 1017.3mb 78f 75f
8:50pm 4.5ft 6s 5s 13 18 mph 1017.1mb 78f 75f
8:40pm  -   -   -  13 16 mph 1017mb - 75f
8:30pm  -   -   -  13 18 mph 1017mb 78f 75f
8:20pm  -   -   -  13 16 mph 1016.8mb 78f 76f
8:10pm  -   -   -  13 16 mph 1016.8mb 78f 76f
8:00pm  -   -   -  13 16 mph 1016.6mb 78f 76f
7:50pm 4ft 6s 5s 13 18 mph 1016.6mb 78f 76f
7:40pm  -   -   -  13 18 mph 1016.6mb 78f 76f
7:30pm  -   -   -  13 16 mph 1016.6mb 78f 76f
7:20pm  -   -   -  13 18 mph 1016.5mb 78f 76f
7:10pm  -   -   -  13 16 mph 1016.5mb 78f 76f
7:00pm  -   -   -  13 18 mph 1016.5mb 78f 76f
6:50pm 4ft 5s 5s 13 18 mph 1016.5mb 78f 76f
6:40pm 4ft  -  5s 16 18 mph 1016.5mb 78f 76f
6:30pm  -   -   -  16 18 mph 1016.5mb 78f 76f
6:20pm  -   -   -  16 18 mph 1016.5mb 78f 76f
6:10pm  -   -   -  16 18 mph 1016.5mb 78f 76f
6:00pm  -   -   -  16 18 mph 1016.6mb 78f 76f
5:50pm 4ft  -  5s 16 20 mph 1016.6mb 78f -
5:40pm 4ft  -  5s 16 20 mph 1016.8mb 78f 76f
5:30pm  -   -   -  16 20 mph 1016.8mb 78f 76f
5:20pm  -   -   -  18 20 mph 1016.9mb 78f 76f
5:10pm  -   -   -  16 20 mph 1017mb 78f 76f
5:00pm  -   -   -  16 18 mph 1017mb 78f 76f
4:50pm 4ft 7s 5s 16 20 mph 1017.1mb 78f 76f
4:40pm 4ft  -  5s 16 18 mph 1017.1mb 78f 76f
4:30pm  -   -   -  16 20 mph 1017.3mb 78f 76f
4:20pm  -   -   -  16 18 mph 1017.3mb 78f 76f
4:10pm  -   -   -  13 18 mph 1017.4mb 78f 76f
4:00pm  -   -   -  16 20 mph 1017.5mb 78f 76f
3:50pm 4.5ft 6s 5s 16 18 mph 1017.5mb 78f 76f
3:40pm 4.5ft  -  5s 13 18 mph 1017.6mb 78f 76f
3:30pm  -   -   -  13 18 mph 1017.9mb 78f 76f
3:20pm  -   -   -  16 18 mph 1017.9mb 78f 76f
3:10pm  -   -   -  16 18 mph 1018mb 78f 76f
3:00pm  -   -   -  16 18 mph 1018mb 78f 76f
2:50pm 4ft 7s 5s 16 20 mph 1018mb 78f 76f
2:40pm  -   -   -  16 20 mph 1018mb 78f 76f
2:30pm  -   -   -  16 20 mph 1018mb 78f 76f
2:20pm  -   -   -  16 20 mph 1018mb 78f 76f
2:10pm  -   -   -  16 20 mph 1018mb 78f 76f
2:00pm  -   -   -  16 20 mph 1018mb 78f 76f
1:50pm 4ft 7s 5s 16 20 mph 1018mb 78f 76f
1:40pm  -   -   -  16 20 mph 1017.9mb 78f 76f
1:30pm  -   -   -  16 20 mph 1017.9mb 78f 76f
1:20pm  -   -   -  16 20 mph 1017.5mb 78f 76f
1:10pm  -   -   -  16 20 mph 1017.4mb 78f 76f
1:00pm  -   -   -  18 20 mph 1017.3mb - 76f
12:50pm 3.5ft 6s 5s 16 20 mph 1017.1mb 78f 76f
12:40pm  -   -   -  9 18 mph 1017mb 78f 75f
12:30pm  -   -   -  4 7 mph 1017mb 78f 75f
12:20pm  -   -   -  7 11 mph 1016.9mb 78f 75f
12:10pm  -   -   -  9 11 mph 1016.8mb - -
12:00pm  -   -   -  7 9 mph 1016.6mb 78f 76f
11:50am 3ft 8s 6s 7 11 mph 1016.6mb 78f 76f
11:40am 3ft  -  6s 7 9 mph 1016.5mb 78f 76f
11:30am  -   -   -  7 9 mph 1016.5mb 78f 76f
11:20am  -   -   -  4 7 mph 1016.5mb 78f 76f
11:10am  -   -   -  4 7 mph 1016.5mb 78f 76f
11:00am  -   -   -  4 7 mph 1016.3mb 78f 76f
10:50am 3ft 8s 6s 2 7 mph 1016.1mb 78f 76f
10:40am 3ft  -  6s 2 4 mph 1016mb 78f 76f
10:30am  -   -   -  2 4 mph 1015.9mb 78f 76f
10:20am  -   -   -  2 4 mph 1015.9mb 78f 76f
10:10am  -   -   -  2 4 mph 1015.6mb 78f 76f
10:00am  -   -   -  4
mph
1015.6mb 78f 76f
9:50am 3.5ft 7s 6s 4
mph
1015.6mb 78f 76f
9:40am 3.5ft  -  6s 2 4 mph 1015.5mb 78f 76f
9:30am  -   -   -  4 7 mph 1015.5mb 78f 76f
9:20am  -   -   -  4 7 mph 1015.5mb 78f 76f
9:10am  -   -   -  4 7 mph 1015.5mb 78f 76f
9:00am  -   -   -  7 9 mph 1015.5mb 78f 76f
8:50am 3ft 8s 6s 7 9 mph 1015.4mb 78f 76f
8:40am 3ft  -  6s 4 7 mph 1015.4mb 78f 76f
8:30am  -   -   -  4 7 mph 1015.5mb 78f 76f
8:20am  -   -   -  4 7 mph 1015.5mb 78f 76f
8:10am  -   -   -  4
mph
1015.6mb 78f 76f
8:00am  -   -   -  2 4 mph 1015.6mb 78f 76f
7:50am 3ft 8s 6s 4
mph
1015.6mb 78f 76f
7:40am  -   -   -  4 7 mph 1015.8mb 78f 76f
7:30am  -   -   -  4 7 mph 1015.9mb 78f 76f
7:20am  -   -   -  4 7 mph 1015.9mb 78f 76f
7:10am  -   -   -  7
mph
1016mb 78f 76f
7:00am  -   -   -  7
mph
1016mb 78f 76f
6:50am 3ft 8s 6s 7 9 mph 1016mb 78f 76f
6:40am  -   -   -  4 7 mph 1016mb 78f 76f
6:30am  -   -   -  4 7 mph 1016mb 78f 76f
6:20am  -   -   -  4 7 mph 1016mb 78f 76f
6:10am  -   -   -  4 7 mph 1016.1mb 78f 76f
6:00am  -   -   -  4 7 mph 1016.3mb 78f 76f
5:50am 2.5ft 7s 6s 7 9 mph 1016.5mb 78f 76f
5:40am  -   -   -  4 7 mph 1016.5mb 78f 76f
5:30am  -   -   -  7
mph
1016.5mb 78f 76f
5:20am  -   -   -  4 7 mph 1016.5mb 78f 76f
5:10am  -   -   -  4 7 mph 1016.8mb 78f 76f
5:00am  -   -   -  4 7 mph 1016.9mb 78f 76f
4:50am 3ft 8s 6s 4 7 mph 1016.9mb 78f 76f
4:40am  -   -   -  4 7 mph 1016.9mb 78f 76f
4:30am  -   -   -  4 7 mph 1017mb 78f 76f
4:20am  -   -   -  4 7 mph 1017mb 78f 76f
4:10am  -   -   -  4 9 mph 1017mb 78f 76f
4:00am  -   -   -  4 7 mph 1017mb 78f 76f
3:50am 3ft 9s 6s 4 7 mph 1017.1mb 78f 76f
3:40am 3ft  -  6s 4 7 mph 1017.1mb 78f 76f
3:30am  -   -   -  4 7 mph 1017.1mb 78f 76f
3:20am  -   -   -  4 7 mph 1017.1mb 78f 76f
3:10am  -   -   -  4 7 mph 1017.3mb 78f 76f
3:00am  -   -   -  7 9 mph 1017.3mb 78f 76f
2:50am 3ft 8s 6s 7 9 mph 1017.3mb 78f 76f
2:40am  -   -   -  7
mph
1017.3mb 78f 76f
2:30am  -   -   -  4 7 mph 1017.3mb 78f 76f
2:20am  -   -   -  4 7 mph 1017.1mb 78f 76f
2:10am  -   -   -  4 7 mph 1017mb 78f 76f
2:00am  -   -   -  7 9 mph 1017.1mb 78f 76f
1:50am 3.5ft 8s 6s 7 9 mph 1017.1mb 78f 76f
1:40am  -   -   -  7 11 mph 1017mb 78f 76f
1:30am  -   -   -  7 9 mph 1017mb 78f 76f
1:20am  -   -   -  9 11 mph 1016.9mb 78f 76f
1:10am  -   -   -  9 11 mph 1016.9mb 78f 76f
1:00am  -   -   -  9 11 mph 1016.8mb - 76f
12:50am 3ft 8s 6s 9 11 mph 1016.5mb 78f 76f
12:40am  -   -   -  9 11 mph 1016.5mb 78f 76f
12:30am  -   -   -  9 11 mph 1016.4mb 78f 76f
12:20am  -   -   -  9 11 mph 1016.5mb 78f 76f
12:10am  -   -   -  9 11 mph 1016.5mb 78f 76f
12:00am  -   -   -  9 11 mph 1016.5mb 78f 76f
Sat 12/03 11:50pm 3ft 8s 6s 9
mph
1016.3mb 78f 76f
11:40pm 3ft  -  6s 7 9 mph 1016.3mb 78f 76f
11:30pm  -   -   -  7 9 mph 1016.3mb 78f 76f
11:20pm  -   -   -  7 9 mph 1016.1mb 78f 76f
11:10pm  -   -   -  7 11 mph 1016mb 78f 76f
11:00pm  -   -   -  9 11 mph 1016mb 78f 77f
10:50pm 3ft 7s 6s 9 11 mph 1016mb 78f 76f
10:40pm  -   -   -  9 11 mph 1015.9mb 78f 77f
10:30pm  -   -   -  9 11 mph 1015.6mb 78f 77f
10:20pm  -   -   -  9 11 mph 1015.6mb 78f 77f
10:10pm  -   -   -  9 11 mph 1015.5mb 78f 76f
10:00pm  -   -   -  9 11 mph 1015.5mb 78f 77f
9:50pm 3.5ft 7s 6s 9 11 mph 1015.4mb 78f 77f
9:40pm  -   -   -  9 11 mph 1015.4mb 78f 77f
9:30pm  -   -   -  11 13 mph 1015.5mb 78f 77f
9:20pm  -   -   -  11 13 mph 1015.4mb 78f 77f
9:10pm  -   -   -  11 13 mph 1015.4mb 78f 77f
9:00pm  -   -   -  9 13 mph 1015.4mb 78f 77f
8:50pm 3.5ft 7s 6s 9 13 mph 1015.3mb 78f 77f
8:40pm  -   -   -  9 11 mph 1015.3mb 78f 77f
8:30pm  -   -   -  9 11 mph 1015.3mb 78f 77f
8:20pm  -   -   -  9 11 mph 1015.1mb 78f 77f
8:10pm  -   -   -  9 11 mph 1015.1mb 78f 77f
8:00pm  -   -   -  9 11 mph 1015.3mb 78f 77f
7:50pm 3.5ft 7s 6s 9 11 mph 1015.3mb 78f 77f
7:40pm  -   -   -  9 11 mph 1015.3mb 78f 77f
7:30pm  -   -   -  9 13 mph 1015.1mb 78f 77f
7:20pm  -   -   -  9 11 mph 1015mb 78f 77f
7:10pm  -   -   -  9 11 mph 1015.1mb 78f 77f
7:00pm  -   -   -  9 11 mph 1015.1mb 78f 77f
6:50pm 3ft 7s 6s 7 9 mph 1015.3mb 78f 77f
6:40pm 3ft  -  6s 7 9 mph 1015.3mb 78f 77f
6:30pm  -   -   -  7 9 mph 1015.4mb 78f 77f
6:20pm  -   -   -  7 9 mph 1015.4mb 78f 77f
6:10pm  -   -   -  4 9 mph 1015.4mb 78f 77f
6:00pm  -   -   -  4 7 mph 1015.4mb 78f 77f
5:50pm 3.5ft 7s 6s 4 7 mph 1015.5mb 78f 77f
5:40pm 3.5ft  -  6s 7 9 mph 1015.5mb 78f 77f
5:30pm  -   -   -  7 9 mph 1015.6mb 78f 77f
5:20pm  -   -   -  7 9 mph 1015.9mb 78f 77f
5:10pm  -   -   -  7 9 mph 1015.9mb 78f 77f
5:00pm  -   -   -  7 9 mph 1016mb 78f 77f
4:50pm 3.5ft 7s 6s 7
mph
1016mb 78f 77f
4:40pm 3.5ft  -  6s 4 7 mph 1016.1mb 78f 77f
4:30pm  -   -   -  4 7 mph 1016.4mb 78f 77f
4:20pm  -   -   -  4 7 mph 1016.5mb 78f 77f
4:10pm  -   -   -  4 7 mph 1016.5mb 78f 77f
4:00pm  -   -   -  4 7 mph 1016.6mb 78f 77f
3:50pm 3.5ft 6s 6s 7 9 mph 1016.8mb 78f 77f
3:40pm  -   -   -  7 9 mph 1016.8mb 78f 77f
3:30pm  -   -   -  7 9 mph 1017mb 78f 77f
3:20pm  -   -   -  7 9 mph 1017mb 78f 77f
3:10pm  -   -   -  7 9 mph 1017.3mb 78f 77f
3:00pm  -   -   -  7 9 mph 1017.4mb 78f 77f
2:50pm 3.5ft 7s 6s 7 9 mph 1017.5mb 78f 77f
2:40pm  -   -   -  9
mph
1017.5mb 78f 77f
2:30pm  -   -   -  7 9 mph 1017.5mb 78f 77f
2:20pm  -   -   -  7 9 mph 1017.6mb 78f 77f
2:10pm  -   -   -  7 9 mph 1017.6mb 78f 77f
2:00pm  -   -   -  7
mph
1017.5mb 78f 77f
1:50pm 3.5ft 8s 6s 7 9 mph 1017.5mb 77f 77f
1:40pm  -   -   -  7 9 mph 1017.4mb 77f 77f
1:30pm  -   -   -  7 9 mph 1017.4mb 77f 77f
1:20pm  -   -   -  7 9 mph 1017.4mb 77f 77f
1:10pm  -   -   -  9 11 mph 1017.4mb 77f 77f
1:00pm  -   -   -  9 11 mph 1017.3mb 77f 77f
12:50pm 3.5ft 7s 6s 9 11 mph 1017.1mb - 77f
12:40pm  -   -   -  9 11 mph 1017mb 77f 77f
12:30pm  -   -   -  9 11 mph 1017mb 77f 77f
12:20pm  -   -   -  9 11 mph 1017mb 77f 77f
12:10pm  -   -   -  9
mph
1017mb 77f 77f
12:00pm  -   -   -  9 11 mph 1016.8mb 77f 77f
11:50am 3.5ft 7s 6s 9 11 mph 1016.6mb 77f 77f
11:40am 3.5ft  -  6s 9 11 mph 1016.5mb 77f 77f
11:30am  -   -   -  9 11 mph 1016.5mb 78f 77f
11:20am  -   -   -  11 13 mph 1016.5mb 78f 77f
11:10am  -   -   -  9 11 mph 1016.3mb 78f 77f
11:00am  -   -   -  9 11 mph 1016.3mb 78f 77f
10:50am 3.5ft 7s 6s 7 9 mph 1016.1mb 78f 77f
10:40am 3.5ft  -  6s 7 9 mph 1016.1mb 78f 77f
10:30am  -   -   -  7 9 mph 1016.1mb 78f 77f
10:20am  -   -   -  7
mph
1016mb 78f 77f
10:10am  -   -   -  7
mph
1016mb 78f 77f
10:00am  -   -   -  7 9 mph 1016mb 78f 77f
9:50am 3.5ft 7s 6s 7 9 mph 1015.9mb 78f 77f
9:40am  -   -   -  9 11 mph 1015.9mb 78f 77f
9:30am  -   -   -  7 9 mph 1015.9mb 78f 77f
9:20am  -   -   -  9 11 mph 1015.9mb 78f 77f
9:10am  -   -   -  9 11 mph 1015.6mb 78f 76f
9:00am  -   -   -  7 9 mph 1015.6mb 78f 76f
8:50am 3.5ft 7s 6s 7 9 mph 1015.5mb 78f 76f
8:40am  -   -   -  7 9 mph 1015.5mb 78f 76f
8:30am  -   -   -  9
mph
1015.6mb 78f 76f
8:20am  -   -   -  7 11 mph 1015.5mb 78f 77f
8:10am  -   -   -  7 9 mph 1015.6mb 78f 77f
8:00am  -   -   -  7 9 mph 1015.8mb 78f 77f
7:50am 3.5ft 8s 6s 7 9 mph 1015.9mb 78f 76f
7:40am 3.5ft  -  6s 7 9 mph 1015.8mb 78f 76f
7:30am  -   -   -  7 9 mph 1015.8mb 78f 76f
7:20am  -   -   -  7 9 mph 1015.9mb 78f 76f
7:10am  -   -   -  7 11 mph 1015.9mb 78f 77f
7:00am  -   -   -  9 11 mph 1015.9mb 78f 77f
6:50am 3.5ft 7s 6s 7 9 mph 1016mb 78f 77f
6:40am 3.5ft  -  6s 7 9 mph 1015.9mb 78f 77f
6:30am  -   -   -  4 7 mph 1016mb 78f 77f
6:20am  -   -   -  2 4 mph 1016mb 78f 77f
6:10am  -   -   -  4
mph
1016mb 78f 77f
6:00am  -   -   -  2 4 mph 1016.3mb 78f 77f
5:50am 3.5ft 8s 6s 2 4 mph 1016.5mb 78f 77f
5:40am 3.5ft  -  6s 4
mph
1016.5mb 78f 77f
5:30am  -   -   -  4
mph
1016.5mb 78f 77f
5:20am  -   -   -  4
mph
1016.6mb 78f 77f
5:10am  -   -   -  2 4 mph 1016.8mb 78f 77f
5:00am  -   -   -  2 4 mph 1016.6mb 78f 77f
4:50am 4ft 7s 6s  -  2 mph 1016.8mb 78f 77f
4:40am  -   -   -  2 4 mph 1016.8mb - 77f
4:30am  -   -   -  2 4 mph 1016.8mb 78f 77f
4:20am  -   -   -  4
mph
1016.8mb 78f 77f
4:10am  -   -   -  2 4 mph 1016.9mb 78f 77f
4:00am  -   -   -  2 4 mph 1017mb 78f 77f
3:50am 3.5ft 8s 6s 2 4 mph 1017mb 78f 77f
3:40am 3.5ft  -  6s 2 4 mph 1017.1mb 78f 77f
3:30am  -   -   -  2 4 mph 1017.3mb 78f 77f
3:20am  -   -   -  2 4 mph 1017.3mb 78f 77f
3:10am  -   -   -  2 4 mph 1017.3mb 78f 77f
3:00am  -   -   -  2 4 mph 1017.4mb 78f 77f
2:50am 4.5ft 8s 6s 4
mph
1017.5mb 78f 77f
2:40am 4.5ft  -  6s 4
mph
1017.5mb 78f 78f
2:30am  -   -   -  2 4 mph 1017.5mb 78f 78f
2:20am  -   -   -  4 7 mph 1017.5mb 78f 78f
2:10am  -   -   -  4 7 mph 1017.5mb 78f 78f
2:00am  -   -   -  4 7 mph 1017.5mb 78f 78f
1:50am 4.5ft 7s 6s 4 7 mph 1017.5mb 78f 78f
1:20am  -   -   -  4 7 mph 1018.2mb 78f 78f
1:10am  -   -   -  4 7 mph 1017.5mb 78f 78f
1:00am  -   -   -  4 7 mph 1017.4mb 78f 78f
12:50am 4.5ft 8s 6s 4 7 mph 1017.4mb 78f 78f
12:40am 4.5ft  -  6s 4 7 mph 1017.3mb 78f 78f
12:30am  -   -   -  4 7 mph 1017.3mb 78f 78f
12:20am  -   -   -  7
mph
1017.1mb 78f 78f
12:10am  -   -   -  4 7 mph 1017.1mb 78f 78f
12:00am  -   -   -  4 7 mph 1017.1mb 78f 78f
Fri 12/02 11:50pm 4.5ft 7s 6s 4 7 mph 1017.1mb 78f 78f
11:40pm 4.5ft  -  6s 7
mph
1017mb 78f 78f
11:30pm  -   -   -  7
mph
1017mb 78f 78f
11:20pm  -   -   -  7 9 mph 1017mb 78f 78f
11:10pm  -   -   -  7 9 mph 1017mb 78f 78f
11:00pm  -   -   -  7 9 mph 1016.9mb 78f 78f
10:50pm 4.5ft 8s 6s 7 9 mph 1017mb 78f 78f
10:40pm 4.5ft  -  6s 7 9 mph 1017mb 78f 78f
10:30pm  -   -   -  7 9 mph 1016.9mb 78f 78f
10:20pm  -   -   -  7 9 mph 1016.9mb 78f 78f
10:10pm  -   -   -  7 9 mph 1016.9mb 78f 78f
10:00pm  -   -   -  7 9 mph 1016.8mb 78f 78f
9:50pm 4.5ft 8s 6s 7 9 mph 1016.6mb 78f 78f
9:40pm  -   -   -  7 9 mph 1016.8mb 78f 78f
9:30pm  -   -   -  7 9 mph 1016.6mb 78f 78f
9:20pm  -   -   -  7
mph
1016.6mb 78f 78f
9:10pm  -   -   -  4 9 mph 1016.6mb 79f 78f
9:00pm  -   -   -  4 7 mph 1016.5mb 79f 78f
8:50pm 4.5ft 8s 6s 7
mph
1016.5mb 78f 79f
8:40pm  -   -   -  4 7 mph 1016.5mb 79f 79f
8:30pm  -   -   -  4 7 mph 1016.5mb 79f 79f
8:20pm  -   -   -  7 9 mph 1016.3mb 79f 79f
8:10pm  -   -   -  7 9 mph 1016.1mb 79f 79f
8:00pm  -   -   -  7 9 mph 1016mb 79f 79f
7:50pm 4.5ft 8s 6s 4 7 mph 1016mb 79f 79f
7:40pm  -   -   -  4 7 mph 1016mb 79f 79f
7:30pm  -   -   -  4 7 mph 1016mb - -
7:20pm  -   -   -  4 7 mph 1016mb 79f 79f
7:10pm  -   -   -  4 7 mph 1016mb 79f 79f
7:00pm  -   -   -  4 7 mph 1016mb 79f 79f
6:50pm 4.5ft 8s 6s 4 7 mph 1016mb 78f 79f
6:40pm  -   -   -  4 7 mph 1016mb 78f 79f
6:30pm  -   -   -  4 7 mph 1016mb 78f 79f
6:20pm  -   -   -  7 9 mph 1016.1mb 79f 79f
6:10pm  -   -   -  7 9 mph 1016.1mb 79f 79f
6:00pm  -   -   -  7
mph
1016.3mb 78f 79f
5:50pm 4.5ft 8s 6s 4 7 mph 1016.4mb 79f 79f
5:40pm 4.5ft  -  6s 4 7 mph 1016.5mb 78f 79f
5:30pm  -   -   -  4 7 mph 1016.6mb 78f 79f
5:20pm  -   -   -  4 7 mph 1016.8mb 78f 79f
5:10pm  -   -   -  4 7 mph 1016.9mb 78f 79f
5:00pm  -   -   -  4 9 mph 1017mb 78f 79f
4:50pm 4.5ft 8s 6s 7
mph
1017mb 78f 79f
4:40pm  -   -   -  7
mph
1017.3mb 78f 79f
4:30pm  -   -   -  7 9 mph 1017.4mb 78f 79f
4:20pm  -   -   -  4 7 mph 1017.5mb 78f 79f
4:10pm  -   -   -  4 7 mph 1017.8mb 78f 79f
4:00pm  -   -   -  4 7 mph 1017.9mb 78f 79f
3:50pm 5ft 8s 6s 7 9 mph 1018mb 78f 79f
3:40pm 5ft  -  6s 7 9 mph 1018mb 78f 79f
3:30pm  -   -   -  4 9 mph 1018.1mb - -
3:20pm  -   -   -  4 9 mph 1018.4mb 78f 79f
3:10pm  -   -   -  7 9 mph 1018.4mb 78f 79f
3:00pm  -   -   -  7 9 mph 1018.5mb 78f 79f
2:50pm 5ft 8s 6s 7 9 mph 1018.6mb 78f 79f
2:40pm  -   -   -  4 7 mph 1018.9mb 78f 79f
2:30pm  -   -   -  4 7 mph 1018.9mb 78f 79f
2:20pm  -   -   -  4 7 mph 1018.8mb 78f 79f
2:10pm  -   -   -  4 7 mph 1018.8mb 78f 79f
2:00pm  -   -   -  4 7 mph 1018.8mb 78f 79f
1:50pm 5ft 8s 6s 4 7 mph 1018.6mb 78f 79f
1:40pm  -   -   -  4 7 mph 1018.6mb 78f 79f
1:30pm  -   -   -  4 7 mph 1018.6mb 78f 78f
1:20pm  -   -   -  4 7 mph 1018.5mb 77f 78f
1:10pm  -   -   -  4 7 mph 1018.5mb 77f 78f
1:00pm  -   -   -  4 7 mph 1018.3mb 77f 78f
12:50pm 5ft 8s 6s 4 7 mph 1018mb 77f 78f
12:40pm 5ft  -  6s 4 7 mph 1018mb 77f 78f
12:30pm  -   -   -  7 9 mph 1017.9mb 77f 78f
12:20pm  -   -   -  4 9 mph 1017.8mb 77f 78f
12:10pm  -   -   -  7
mph
1017.5mb 77f 78f
12:00pm  -   -   -  4 9 mph 1017.4mb 77f 78f
11:50am 5ft 8s 6s 4 7 mph 1017.4mb 77f 78f
11:40am  -   -   -  4 7 mph 1017.3mb 77f 78f
11:30am  -   -   -  7 9 mph 1017mb 77f 78f
11:20am  -   -   -  7 9 mph 1017mb 77f 78f
11:10am  -   -   -  7 9 mph 1016.9mb 77f 78f
11:00am  -   -   -  7 9 mph 1016.8mb 77f 78f
10:50am 5ft 8s 6s 7 11 mph 1016.5mb 77f 78f
10:40am  -   -   -  7 11 mph 1016.5mb 77f 78f
10:30am  -   -   -  9 11 mph 1016.5mb 77f 78f
10:20am  -   -   -  9 11 mph 1016.4mb 77f 78f
10:10am  -   -   -  9 11 mph 1016.3mb 77f 78f
10:00am  -   -   -  9 11 mph 1016.3mb 77f 78f
9:50am 5.5ft 8s 6s 9 11 mph 1016.3mb 77f 78f
9:40am  -   -   -  9 11 mph 1016.1mb 77f 78f
9:30am  -   -   -  9 11 mph 1016.3mb 77f 78f
9:20am  -   -   -  9 11 mph 1016.1mb 77f 78f
9:10am  -   -   -  9 11 mph 1016.1mb 77f 78f
9:00am  -   -   -  9 11 mph 1016mb 78f 78f
8:50am 6ft 8s 6s 9 13 mph 1016.1mb 78f 78f
8:40am 6ft  -  6s 9 13 mph 1016mb 78f 78f
8:30am  -   -   -  11 13 mph 1016mb 78f 78f
8:20am  -   -   -  9 13 mph 1016mb 78f 78f
8:10am  -   -   -  9 13 mph 1016mb 78f 78f
8:00am  -   -   -  9 13 mph 1016mb 78f 78f
7:50am 5.5ft 8s 6s 11 13 mph 1016mb 78f 78f
7:40am  -   -   -  9 13 mph 1016mb 78f 78f
7:30am  -   -   -  9 11 mph 1016.1mb 78f 78f
7:20am  -   -   -  9 13 mph 1016.3mb 78f 78f
7:10am  -   -   -  9 11 mph 1016.1mb 78f 78f
7:00am  -   -   -  9 13 mph 1016.1mb 78f 78f
6:50am 6ft 8s 6s 9 13 mph 1016.1mb 78f 78f
6:40am 6ft  -  6s 9 13 mph 1016.3mb 78f 78f
6:30am  -   -   -  9 11 mph 1016.4mb 78f 78f
6:20am  -   -   -  9 11 mph 1016.5mb 78f 78f
6:10am  -   -   -  9 11 mph 1016.6mb 78f 78f
6:00am  -   -   -  9 11 mph 1016.6mb 78f 78f
5:50am 6ft 8s 6s 9 11 mph 1016.8mb 78f 78f
5:40am 6ft  -  6s 9 13 mph 1016.8mb 78f 78f
5:30am  -   -   -  9 13 mph 1016.8mb 78f 78f
5:20am  -   -   -  9 13 mph 1016.8mb 78f 78f
5:10am  -   -   -  9 11 mph 1016.8mb 78f 78f
5:00am  -   -   -  9 11 mph 1016.9mb 78f 78f
4:50am 6ft 8s 6s 9 11 mph 1016.9mb 78f 78f
4:40am  -   -   -  9 11 mph 1017.6mb 78f 78f
4:30am  -   -   -  9 11 mph 1017mb 78f 78f
4:20am  -   -   -  7 11 mph 1017mb 78f 78f
4:10am  -   -   -  9 11 mph 1017.1mb 78f 78f
4:00am  -   -   -  9 11 mph 1017.3mb 78f 78f
3:50am 6ft 8s 6s 9 11 mph 1017.3mb 78f 78f
3:40am 6ft  -  6s 7 11 mph 1017.3mb 78f 78f
3:30am  -   -   -  7 11 mph 1017.3mb 78f 78f
3:20am  -   -   -  7 9 mph 1017.4mb 78f 78f
3:10am  -   -   -  7 9 mph 1017.4mb 78f 78f
3:00am  -   -   -  7 11 mph 1017.3mb 78f 78f
2:50am 6ft 9s 6s 7 9 mph 1017.3mb 78f 78f
2:40am  -   -   -  9 11 mph 1017.1mb 78f 78f
2:30am  -   -   -  9 11 mph 1017mb 78f 78f
2:20am  -   -   -  9 11 mph 1017.1mb 78f 78f
2:10am  -   -   -  7 11 mph 1017.1mb 78f 78f
2:00am  -   -   -  9 11 mph 1017.1mb 78f 78f
1:50am 6.5ft 9s 6s 9 13 mph 1017mb 78f 78f
1:40am  -   -   -  11 13 mph 1017mb 78f 78f
1:30am  -   -   -  9 13 mph 1016.9mb 78f 78f
1:20am  -   -   -  9 13 mph 1016.8mb 78f 78f
1:10am  -   -   -  9 13 mph 1016.9mb - 78f
1:00am  -   -   -  9 13 mph 1016.8mb 78f 78f
12:50am 6ft 8s 6s 9 13 mph 1016.6mb 78f 78f
12:40am 6ft  -  6s 9 11 mph 1016.6mb 78f 78f
12:30am  -   -   -  9 11 mph 1016.8mb 78f 78f
12:20am  -   -   -  9 11 mph 1016.8mb 78f 78f
12:10am  -   -   -  9 13 mph 1016.5mb 78f 78f
12:00am  -   -   -  9 11 mph 1016.5mb 78f 78f
Thu 12/01 11:50pm 6ft 9s 6s 9 13 mph 1016.5mb 78f 78f
11:40pm 6ft  -  6s 11 13 mph 1016.3mb 78f 78f
11:30pm  -   -   -  11 13 mph 1016.1mb 78f 78f
11:20pm  -   -   -  11 13 mph 1016mb 78f 78f
11:10pm  -   -   -  11 13 mph 1016mb 78f 78f
11:00pm  -   -   -  11 16 mph 1015.9mb 78f 78f
10:50pm 7ft 8s 6s 11 16 mph 1015.8mb 78f 78f
10:40pm 7ft  -  6s 11 13 mph 1015.6mb 78f 78f
10:30pm  -   -   -  11 16 mph 1015.6mb 78f 78f
10:20pm  -   -   -  11 16 mph 1015.6mb 78f 78f
10:10pm  -   -   -  11 16 mph 1015.6mb 78f 78f
10:00pm  -   -   -  11 16 mph 1015.5mb 78f 78f
9:50pm 7ft 8s 7s 11 16 mph 1015.5mb 78f 78f
9:40pm 7ft  -  7s 11 16 mph 1015.5mb 78f 78f
9:30pm  -   -   -  11 16 mph 1015.5mb 78f 78f
9:20pm  -   -   -  11 13 mph 1015.5mb 78f 78f
9:10pm  -   -   -  11 13 mph 1015.5mb 78f 78f
9:00pm  -   -   -  11 16 mph 1015.5mb 78f 78f
8:50pm 7ft 9s 6s 11 16 mph 1015.5mb 78f 78f
8:40pm  -   -   -  11 16 mph 1015.5mb 78f 78f
8:30pm  -   -   -  13 16 mph 1015.4mb 78f 78f
8:20pm  -   -   -  13 18 mph 1015.4mb 78f 78f
8:10pm  -   -   -  13 18 mph 1015.4mb 78f 78f
8:00pm  -   -   -  13 18 mph 1015.4mb 78f 78f
7:50pm 7ft 9s 6s 13 16 mph 1015.4mb 78f 78f
7:40pm  -   -   -  13 18 mph 1015.3mb 78f 78f
7:30pm  -   -   -  13 16 mph 1015.3mb 78f 78f
7:20pm  -   -   -  13 18 mph 1015.4mb 78f 78f
7:10pm  -   -   -  16 20 mph 1015.3mb 78f 78f
7:00pm  -   -   -  11 16 mph 1015.3mb 78f 78f
6:50pm 6ft 9s 6s 11 16 mph 1016.1mb - 78f
5:50pm 7ft 8s 6s 11 13 mph 1016mb 78f 78f
5:40pm 7ft  -  6s 11 16 mph 1016.1mb 78f 78f
5:30pm  -   -   -  11 16 mph 1016.1mb 78f 78f
5:20pm  -   -   -  13 18 mph 1016.4mb 78f 78f
5:10pm  -   -   -  11 16 mph 1016.5mb 78f 78f
5:00pm  -   -   -  11 16 mph 1016.5mb 78f 78f
4:50pm 7ft 9s 6s 13 18 mph 1016.6mb 78f 78f
4:40pm 7ft  -  6s 13 18 mph 1016.8mb - 78f
4:30pm  -   -   -  13 18 mph 1017mb 78f 78f
4:20pm  -   -   -  13 18 mph 1017mb 78f 78f
4:10pm  -   -   -  13 18 mph 1017.1mb 78f 78f
4:00pm  -   -   -  13 18 mph 1017.3mb 78f 78f
3:50pm 6.5ft 9s 6s 13 16 mph 1017.4mb 78f 78f
3:40pm 6.5ft  -  6s 13 18 mph 1017.4mb 78f 78f
3:30pm  -   -   -  13 18 mph 1017.5mb 78f 78f
3:20pm  -   -   -  13 18 mph 1017.5mb 78f 78f
3:10pm  -   -   -  13 18 mph 1017.5mb 78f 78f
3:00pm  -   -   -  13 18 mph 1017.5mb 78f 78f
2:50pm 7ft 8s 6s 16 18 mph 1017.5mb 78f 78f
2:40pm 7ft  -  6s 16 18 mph 1017.6mb 78f 78f
2:30pm  -   -   -  16 20 mph 1017.8mb 78f 78f
2:20pm  -   -   -  13 18 mph 1017.8mb 78f 78f
2:10pm  -   -   -  16 20 mph 1017.8mb 78f 78f
2:00pm  -   -   -  16 20 mph 1017.8mb 78f 78f
1:50pm 7ft 10s 6s 16 20 mph 1017.8mb 78f 78f
1:40pm  -   -   -  16 20 mph 1017.8mb 78f 78f
1:30pm  -   -   -  16 20 mph 1017.8mb 78f 78f
1:20pm  -   -   -  16 18 mph 1017.8mb 78f 78f
1:10pm  -   -   -  16 20 mph 1017.5mb 78f 78f
1:00pm  -   -   -  16 20 mph 1017.5mb - -
12:50pm 7.5ft 9s 7s 16 20 mph 1017.5mb 78f 78f
12:40pm  -   -   -  16 20 mph 1017.5mb 78f 78f
12:30pm  -   -   -  16 18 mph 1017.5mb 78f 78f
12:20pm  -   -   -  16 20 mph 1017.5mb 78f 78f
12:10pm  -   -   -  16 18 mph 1017.5mb 78f 78f
12:00pm  -   -   -  16 18 mph 1017.5mb 78f 78f
11:50am 8ft 9s 7s 16 20 mph 1017.5mb 78f 78f
11:40am 8ft  -  7s 16 20 mph 1017.4mb 78f 78f
11:30am  -   -   -  16 20 mph 1017.3mb 78f 78f
11:20am  -   -   -  16 20 mph 1017.3mb 78f 78f
11:10am  -   -   -  16 20 mph 1017.1mb 78f 78f
11:00am  -   -   -  16 22 mph 1017mb 78f 78f
10:50am 8.5ft 9s 7s 16 20 mph 1017mb 78f 78f
10:40am 8.5ft  -  7s 16 20 mph 1017mb 78f 78f
10:30am  -   -   -  18 20 mph 1017mb 78f 78f
10:20am  -   -   -  18 22 mph 1016.9mb 78f 78f
10:10am  -   -   -  18 20 mph 1017mb 78f 78f
10:00am  -   -   -  18 22 mph 1017mb 78f 78f
9:50am 7.5ft 8s 6s 16 20 mph 1017mb 78f 78f
9:40am  -   -   -  18 22 mph 1017mb 78f 78f
9:30am  -   -   -  18 20 mph 1017mb 78f 77f
9:20am  -   -   -  18 22 mph 1017mb 78f 77f
9:10am  -   -   -  18 22 mph 1016.9mb 78f 77f
9:00am  -   -   -  16 22 mph 1016.9mb 78f 77f
8:50am 9ft 9s 7s 18 22 mph 1016.8mb 78f 77f
8:40am 9ft  -  7s 18 22 mph 1016.8mb 78f 77f
8:30am  -   -   -  16 20 mph 1016.8mb 78f 77f
8:20am  -   -   -  18 22 mph 1016.8mb 78f 78f
8:10am  -   -   -  18 22 mph 1016.9mb 78f 78f
8:00am  -   -   -  18 22 mph 1016.9mb 78f 77f
7:50am 8ft 8s 6s 18 22 mph 1016.8mb 78f 77f
7:40am 8ft  -  6s 18 22 mph 1016.8mb 78f 77f
7:30am  -   -   -  18 22 mph 1016.6mb 78f 77f
7:20am  -   -   -  18 22 mph 1016.6mb 78f 77f
7:10am  -   -   -  16 20 mph 1016.5mb - -
7:00am  -   -   -  18 20 mph 1016.6mb 78f 77f
6:50am 8ft  -  6s 18 22 mph 1016.8mb 78f 78f
6:40am 8ft 10s 6s  -  mph - - -
6:30am  -   -   -  18 22 mph 1016.9mb 78f 78f
6:20am  -   -   -  18 22 mph 1017mb 78f 78f
6:10am  -   -   -  18 20 mph 1017mb 78f 78f
6:00am  -   -   -  18 22 mph 1017mb 78f 78f
5:50am 8ft 9s 6s 18 20 mph 1017mb 78f 78f
5:40am 8ft  -  6s 18 22 mph 1017.3mb 78f 78f
5:30am  -   -   -  18 22 mph 1017.3mb 78f 78f
5:20am  -   -   -  18 22 mph 1017.4mb 78f 78f
5:10am  -   -   -  18 20 mph 1017.5mb 78f 78f
5:00am  -   -   -  18 22 mph 1017.5mb 78f 78f
4:50am 8.5ft 9s 7s 18 22 mph 1017.5mb 78f 78f
4:40am 8.5ft  -  7s 18 22 mph 1017.5mb 78f 78f
4:30am  -   -   -  18 22 mph 1017.5mb 78f 78f
4:20am  -   -   -  18 22 mph 1017.6mb 78f 78f
4:10am  -   -   -  18 22 mph 1017.6mb 78f 78f
4:00am  -   -   -  18 22 mph 1017.8mb 78f 78f
3:50am 8.5ft 9s 7s 18 25 mph 1017.9mb 78f 78f
3:40am  -   -   -  18 22 mph 1018mb 78f 78f
3:30am  -   -   -  18 22 mph 1018mb 78f 78f
3:20am  -   -   -  18 22 mph 1018mb 78f 78f
3:10am  -   -   -  18 22 mph 1018mb 78f 78f
3:00am  -   -   -  18 25 mph 1018mb 78f 78f
2:50am 9ft 9s 7s 18 22 mph 1018mb 78f 78f
2:40am 9ft  -  7s 18 22 mph 1018.1mb 78f 78f
2:30am  -   -   -  18 22 mph 1018.1mb 78f 78f
2:20am  -   -   -  18 25 mph 1018.1mb 78f 78f
2:10am  -   -   -  18 22 mph 1018mb 78f 78f
2:00am  -   -   -  18 22 mph 1018mb 78f 78f
1:50am 9.5ft 9s 7s 18 22 mph 1018mb 78f 78f
1:40am  -   -   -  18 22 mph 1018mb 78f 78f
1:30am  -   -   -  18 22 mph 1017.9mb 78f 78f
1:20am  -   -   -  18 25 mph 1018mb 78f 78f
1:10am  -   -   -  20 27 mph 1018.5mb 78f 78f
1:00am  -   -   -  18 22 mph 1017.9mb 78f 78f
12:50am 10.5ft 9s 7s 18 22 mph 1018mb 78f 78f
12:40am  -   -   -  18 25 mph 1017.9mb 78f 78f
12:30am  -   -   -  18 25 mph 1017.9mb - 78f
12:20am  -   -   -  18 25 mph 1017.8mb 78f 78f
12:10am  -   -   -  18 25 mph 1017.9mb 78f 78f
12:00am  -   -   -  20 25 mph 1017.8mb 78f 78f
Wed 11/30 11:50pm 10ft 9s 7s 18 25 mph 1017.6mb 78f 78f
11:00pm  -   -   -  20 25 mph 1017.3mb 78f 78f
10:50pm 9ft 9s 7s 20 25 mph 1017.3mb 78f 78f
10:40pm  -   -   -  18 25 mph 1017.3mb 78f 78f